createdAt,value
2023-05-05T00:00:26.722Z,101531.13
2023-05-05T00:02:55.601Z,101538.13
2023-05-05T00:05:23.947Z,101535.13
2023-05-05T00:07:52.943Z,101539.47
2023-05-05T00:10:19.430Z,101532.72
2023-05-05T00:12:48.391Z,101546.66
2023-05-05T00:15:18.690Z,101534.13
2023-05-05T00:17:47.849Z,101534.09
2023-05-05T00:20:17.586Z,101547.00
2023-05-05T00:22:44.028Z,101544.44
2023-05-05T00:25:10.510Z,101538.63
2023-05-05T00:27:40.805Z,101534.09
2023-05-05T00:30:08.219Z,101537.28
2023-05-05T00:32:34.931Z,101525.09
2023-05-05T00:35:01.428Z,101541.41
2023-05-05T00:37:28.229Z,101519.53
2023-05-05T00:39:57.101Z,101517.34
2023-05-05T00:42:26.654Z,101525.09
2023-05-05T00:44:53.161Z,101527.31
2023-05-05T00:47:19.986Z,101545.34
2023-05-05T00:49:46.521Z,101546.53
2023-05-05T00:52:13.092Z,101558.72
2023-05-05T00:54:40.242Z,101552.63
2023-05-05T00:57:09.423Z,101552.69
2023-05-05T00:59:39.584Z,101549.06
2023-05-05T01:02:09.076Z,101555.56
2023-05-05T01:04:37.824Z,101552.91
2023-05-05T01:07:28.822Z,101548.97
2023-05-05T01:10:38.209Z,101533.91
2023-05-05T01:13:42.756Z,101550.91
2023-05-05T01:16:19.235Z,101549.28
2023-05-05T01:19:16.877Z,101552.31
2023-05-05T01:21:48.419Z,101550.97
2023-05-05T01:24:33.536Z,101555.13
2023-05-05T01:26:59.960Z,101556.72
2023-05-05T01:29:47.887Z,101550.75
2023-05-05T01:32:19.936Z,101559.38
2023-05-05T01:35:04.353Z,101566.16
2023-05-05T01:37:38.169Z,101567.75
2023-05-05T01:40:10.501Z,101576.31
2023-05-05T01:42:41.083Z,101577.69
2023-05-05T01:45:11.546Z,101570.59
2023-05-05T01:47:40.260Z,101571.19
2023-05-05T01:50:10.693Z,101568.84
2023-05-05T01:52:40.150Z,101573.28
2023-05-05T01:55:08.794Z,101573.53
2023-05-05T01:57:37.611Z,101579.94
2023-05-05T02:00:07.711Z,101588.47
2023-05-05T02:02:36.113Z,101578.16
2023-05-05T02:05:05.149Z,101589.53
2023-05-05T02:07:35.744Z,101598.06
2023-05-05T02:10:09.249Z,101595.94
2023-05-05T02:12:39.722Z,101580.03
2023-05-05T02:15:10.419Z,101571.72
2023-05-05T02:17:39.988Z,101547.31
2023-05-05T02:20:08.271Z,101528.00
2023-05-05T02:22:34.924Z,101534.41
2023-05-05T02:25:01.514Z,101532.19
2023-05-05T02:27:28.682Z,101555.28
2023-05-05T02:30:01.843Z,101562.25
2023-05-05T02:32:36.476Z,101565.75
2023-05-05T02:35:24.422Z,101575.59
2023-05-05T02:38:01.901Z,101568.91
2023-05-05T02:40:36.432Z,101555.94
2023-05-05T02:43:14.813Z,101573.41
2023-05-05T02:45:41.663Z,101567.56
2023-05-05T02:48:08.293Z,101562.78
2023-05-05T02:50:34.892Z,101553.16
2023-05-05T02:53:01.930Z,101547.59
2023-05-05T02:55:36.957Z,101546.00
2023-05-05T02:58:21.745Z,101553.28
2023-05-05T03:00:56.662Z,101551.44
2023-05-05T03:03:58.641Z,101551.38
2023-05-05T03:06:27.328Z,101554.06
2023-05-05T03:09:07.944Z,101561.94
2023-05-05T03:12:02.015Z,101567.69
2023-05-05T03:14:35.976Z,101561.91
2023-05-05T03:17:03.216Z,101571.97
2023-05-05T03:19:33.430Z,101577.66
2023-05-05T03:22:00.709Z,101574.66
2023-05-05T03:24:29.519Z,101582.22
2023-05-05T03:26:58.246Z,101577.06
2023-05-05T03:29:25.412Z,101585.59
2023-05-05T03:31:52.157Z,101586.38
2023-05-05T03:34:21.004Z,101591.91
2023-05-05T03:36:50.147Z,101599.81
2023-05-05T03:39:19.026Z,101594.84
2023-05-05T03:41:45.632Z,101592.44
2023-05-05T03:44:12.067Z,101582.47
2023-05-05T03:46:39.017Z,101572.59
2023-05-05T03:49:05.535Z,101574.38
2023-05-05T03:51:32.118Z,101587.47
2023-05-05T03:53:58.681Z,101601.31
2023-05-05T03:56:27.592Z,101597.16
2023-05-05T03:58:56.315Z,101602.03
2023-05-05T04:01:23.498Z,101616.53
2023-05-05T04:03:55.236Z,101621.69
2023-05-05T04:06:24.426Z,101619.56
2023-05-05T04:08:53.251Z,101621.00
2023-05-05T04:11:20.159Z,101627.75
2023-05-05T04:13:46.748Z,101644.38
2023-05-05T04:16:15.853Z,101638.22
2023-05-05T04:18:42.353Z,101641.97
2023-05-05T04:21:11.143Z,101642.97
2023-05-05T04:23:40.110Z,101643.56
2023-05-05T04:26:06.732Z,101641.63
2023-05-05T04:28:33.174Z,101652.75
2023-05-05T04:31:01.088Z,101659.03
2023-05-05T04:33:27.615Z,101662.59
2023-05-05T04:35:56.461Z,101666.78
2023-05-05T04:38:25.852Z,101665.78
2023-05-05T04:40:57.125Z,101671.41
2023-05-05T04:43:23.700Z,101676.41
2023-05-05T04:45:57.806Z,101676.41
2023-05-05T04:48:29.139Z,101674.59
2023-05-05T04:50:55.614Z,101671.88
2023-05-05T04:53:24.189Z,101675.06
2023-05-05T04:55:52.981Z,101678.63
2023-05-05T04:58:21.763Z,101676.91
2023-05-05T05:00:50.772Z,101681.59
2023-05-05T05:03:19.834Z,101682.19
2023-05-05T05:05:51.194Z,101687.44
2023-05-05T05:08:18.135Z,101680.66
2023-05-05T05:10:45.114Z,101680.50
2023-05-05T05:13:12.880Z,101692.78
2023-05-05T05:15:42.329Z,101699.66
2023-05-05T05:18:11.146Z,101704.00
2023-05-05T05:20:37.649Z,101698.88
2023-05-05T05:23:06.570Z,101689.25
2023-05-05T05:25:35.278Z,101692.69
2023-05-05T05:28:10.157Z,101689.34
2023-05-05T05:30:39.849Z,101692.91
2023-05-05T05:33:06.766Z,101691.22
2023-05-05T05:35:33.305Z,101687.63
2023-05-05T05:37:59.750Z,101701.09
2023-05-05T05:40:33.433Z,101701.63
2023-05-05T05:42:59.925Z,101695.94
2023-05-05T05:45:26.360Z,101702.53
2023-05-05T05:47:54.891Z,101706.78
2023-05-05T05:50:27.085Z,101710.38
2023-05-05T05:52:55.864Z,101716.56
2023-05-05T05:55:22.656Z,101702.75
2023-05-05T05:57:49.111Z,101711.59
2023-05-05T06:00:20.719Z,101716.56
2023-05-05T06:02:51.325Z,101716.44
2023-05-05T06:05:20.428Z,101713.72
2023-05-05T06:07:51.771Z,101713.44
2023-05-05T06:10:27.994Z,101711.59
2023-05-05T06:12:59.860Z,101709.34
2023-05-05T06:15:28.553Z,101710.94
2023-05-05T06:17:57.452Z,101704.41
2023-05-05T06:20:26.294Z,101701.50
2023-05-05T06:22:55.125Z,101703.75
2023-05-05T06:25:22.058Z,101705.41
2023-05-05T06:27:50.869Z,101701.88
2023-05-05T06:30:19.978Z,101702.69
2023-05-05T06:32:46.470Z,101700.34
2023-05-05T06:35:17.484Z,101711.03
2023-05-05T06:37:44.341Z,101719.88
2023-05-05T06:40:11.280Z,101720.16
2023-05-05T06:42:40.504Z,101725.31
2023-05-05T06:45:07.613Z,101725.91
2023-05-05T06:47:34.559Z,101729.28
2023-05-05T06:50:03.826Z,101733.81
2023-05-05T06:52:32.520Z,101728.25
2023-05-05T06:54:59.018Z,101731.88
2023-05-05T06:57:25.944Z,101732.06
2023-05-05T06:59:54.036Z,101733.84
2023-05-05T07:02:26.957Z,101732.06
2023-05-05T07:04:55.736Z,101738.19
2023-05-05T07:07:24.714Z,101733.91
2023-05-05T07:09:53.453Z,101739.25
2023-05-05T07:12:22.156Z,101743.81
2023-05-05T07:14:51.012Z,101750.78
2023-05-05T07:17:17.834Z,101748.63
2023-05-05T07:19:46.437Z,101752.00
2023-05-05T07:22:12.952Z,101755.59
2023-05-05T07:24:39.501Z,101753.19
2023-05-05T07:27:08.502Z,101754.28
2023-05-05T07:29:37.494Z,101750.44
2023-05-05T07:32:06.246Z,101751.75
2023-05-05T07:34:34.346Z,101746.56
2023-05-05T07:37:00.970Z,101760.88
2023-05-05T07:39:32.073Z,101764.69
2023-05-05T07:42:03.482Z,101754.81
2023-05-05T07:44:32.282Z,101757.13
2023-05-05T07:46:58.808Z,101756.44
2023-05-05T07:49:26.782Z,101756.06
2023-05-05T07:51:53.293Z,101748.75
2023-05-05T07:54:22.161Z,101763.09
2023-05-05T07:56:48.638Z,101753.94
2023-05-05T07:59:15.116Z,101753.75
2023-05-05T08:01:42.069Z,101755.69
2023-05-05T08:04:13.933Z,101755.03
2023-05-05T08:06:40.608Z,101752.28
2023-05-05T08:09:07.666Z,101752.06
2023-05-05T08:11:36.606Z,101745.28
2023-05-05T08:14:03.083Z,101758.19
2023-05-05T08:16:36.927Z,101758.19
2023-05-05T08:19:14.550Z,101759.44
2023-05-05T08:21:47.918Z,101755.94
2023-05-05T08:24:14.408Z,101758.19
2023-05-05T08:26:43.114Z,101758.16
2023-05-05T08:29:09.588Z,101755.56
2023-05-05T08:31:39.683Z,101769.72
2023-05-05T08:34:06.801Z,101760.59
2023-05-05T08:36:35.555Z,101758.72
2023-05-05T08:39:02.102Z,101759.50
2023-05-05T08:41:31.212Z,101763.38
2023-05-05T08:44:00.050Z,101766.28
2023-05-05T08:46:31.007Z,101768.38
2023-05-05T08:49:00.484Z,101771.50
2023-05-05T08:51:38.292Z,101771.03
2023-05-05T08:54:06.959Z,101771.03
2023-05-05T08:56:39.474Z,101769.38
2023-05-05T08:59:06.837Z,101777.69
2023-05-05T09:01:36.170Z,101779.28
2023-05-05T09:04:05.292Z,101779.16
2023-05-05T09:06:33.772Z,101782.66
2023-05-05T09:09:01.236Z,101778.44
2023-05-05T09:11:28.075Z,101779.84
2023-05-05T09:13:57.496Z,101774.28
2023-05-05T09:16:24.151Z,101767.22
2023-05-05T09:19:01.232Z,101772.84
2023-05-05T09:21:31.193Z,101774.69
2023-05-05T09:24:13.132Z,101765.75
2023-05-05T09:26:47.026Z,101771.44
2023-05-05T09:29:23.232Z,101774.47
2023-05-05T09:32:10.135Z,101772.91
2023-05-05T09:34:37.372Z,101775.31
2023-05-05T09:37:04.162Z,101778.81
2023-05-05T09:39:30.741Z,101776.69
2023-05-05T09:41:59.353Z,101771.31
2023-05-05T09:44:41.219Z,101777.59
2023-05-05T09:47:18.027Z,101777.47
2023-05-05T09:50:00.796Z,101767.81
2023-05-05T09:52:27.841Z,101763.50
2023-05-05T09:54:58.030Z,101761.31
2023-05-05T09:57:34.102Z,101760.41
2023-05-05T10:00:04.393Z,101755.91
2023-05-05T10:02:33.020Z,101757.91
2023-05-05T10:05:07.284Z,101762.34
2023-05-05T10:07:37.293Z,101769.84
2023-05-05T10:10:06.024Z,101755.63
2023-05-05T10:12:37.752Z,101756.78
2023-05-05T10:15:06.239Z,101749.63
2023-05-05T10:17:39.099Z,101759.63
2023-05-05T10:20:09.657Z,101758.81
2023-05-05T10:22:41.771Z,101766.00
2023-05-05T10:25:21.471Z,101786.91
2023-05-05T10:27:52.859Z,101797.16
2023-05-05T10:30:49.090Z,101802.50
2023-05-05T10:33:31.751Z,101803.19
2023-05-05T10:36:05.270Z,101793.91
2023-05-05T10:38:32.950Z,101796.41
2023-05-05T10:41:00.063Z,101798.94
2023-05-05T10:43:28.443Z,101789.50
2023-05-05T10:45:55.686Z,101784.69
2023-05-05T10:48:32.962Z,101791.28
2023-05-05T10:51:17.027Z,101793.69
2023-05-05T10:54:03.120Z,101802.97
2023-05-05T10:56:34.878Z,101805.16
2023-05-05T10:59:23.854Z,101821.38
2023-05-05T11:01:52.033Z,101811.06
2023-05-05T11:04:23.015Z,101815.34
2023-05-05T11:07:27.010Z,101818.00
2023-05-05T11:09:58.949Z,101820.41
2023-05-05T11:12:27.663Z,101818.38
2023-05-05T11:15:28.129Z,101819.81
2023-05-05T11:17:58.831Z,101827.22
2023-05-05T11:20:39.528Z,101834.16
2023-05-05T11:23:06.296Z,101841.25
2023-05-05T11:25:44.654Z,101835.16
2023-05-05T11:28:19.833Z,101824.00
2023-05-05T11:30:55.827Z,101822.31
2023-05-05T11:33:25.947Z,101830.53
2023-05-05T11:35:59.629Z,101839.53
2023-05-05T11:39:11.101Z,101852.88
2023-05-05T11:41:37.523Z,101858.78
2023-05-05T11:44:10.767Z,101858.69
2023-05-05T11:46:41.414Z,101861.09
2023-05-05T11:49:12.532Z,101859.91
2023-05-05T11:51:41.804Z,101856.56
2023-05-05T11:54:11.023Z,101860.31
2023-05-05T11:56:50.074Z,101851.53
2023-05-05T11:59:20.034Z,101855.47
2023-05-05T12:01:46.647Z,101852.84
2023-05-05T12:04:14.583Z,101846.59
2023-05-05T12:06:42.193Z,101849.19
2023-05-05T12:09:19.966Z,101842.91
2023-05-05T12:11:52.959Z,101841.66
2023-05-05T12:14:20.492Z,101835.94
2023-05-05T12:16:56.313Z,101832.81
2023-05-05T12:19:29.797Z,101832.63
2023-05-05T12:21:59.046Z,101837.53
2023-05-05T12:24:30.293Z,101838.00
2023-05-05T12:27:14.439Z,101841.38
2023-05-05T12:29:43.160Z,101844.75
2023-05-05T12:32:18.879Z,101837.41
2023-05-05T12:34:45.576Z,101842.78
2023-05-05T12:37:15.642Z,101844.63
2023-05-05T12:39:47.027Z,101843.09
2023-05-05T12:42:15.797Z,101849.56
2023-05-05T12:44:44.869Z,101851.53
2023-05-05T12:47:12.597Z,101843.59
2023-05-05T12:50:05.414Z,101844.03
2023-05-05T12:52:45.237Z,101842.84
2023-05-05T12:55:12.633Z,101838.47
2023-05-05T12:58:01.349Z,101840.09
2023-05-05T13:00:30.419Z,101830.34
2023-05-05T13:02:57.110Z,101834.47
2023-05-05T13:05:34.053Z,101838.00
2023-05-05T13:08:00.624Z,101837.06
2023-05-05T13:10:31.159Z,101830.34
2023-05-05T13:12:58.452Z,101827.75
2023-05-05T13:15:28.335Z,101833.78
2023-05-05T13:18:06.059Z,101828.09
2023-05-05T13:20:34.861Z,101825.97
2023-05-05T13:23:04.750Z,101833.38
2023-05-05T13:25:33.647Z,101829.56
2023-05-05T13:28:02.403Z,101839.31
2023-05-05T13:30:28.870Z,101840.88
2023-05-05T13:32:55.410Z,101833.41
2023-05-05T13:35:21.932Z,101842.97
2023-05-05T13:37:48.505Z,101846.16
2023-05-05T13:40:15.370Z,101845.00
2023-05-05T13:42:41.912Z,101857.72
2023-05-05T13:45:08.982Z,101856.66
2023-05-05T13:47:38.491Z,101856.47
2023-05-05T13:50:08.002Z,101854.69
2023-05-05T13:52:34.449Z,101865.41
2023-05-05T13:55:03.194Z,101861.84
2023-05-05T13:57:29.647Z,101855.63
2023-05-05T14:00:01.530Z,101855.72
2023-05-05T14:02:28.091Z,101854.88
2023-05-05T14:04:54.576Z,101849.69
2023-05-05T14:07:23.415Z,101845.81
2023-05-05T14:09:52.336Z,101839.03
2023-05-05T14:12:18.832Z,101840.81
2023-05-05T14:14:45.365Z,101833.66
2023-05-05T14:17:14.215Z,101846.06
2023-05-05T14:19:40.751Z,101841.69
2023-05-05T14:22:11.852Z,101835.56
2023-05-05T14:24:40.680Z,101825.91
2023-05-05T14:27:12.078Z,101821.97
2023-05-05T14:29:40.824Z,101817.44
2023-05-05T14:32:07.391Z,101810.00
2023-05-05T14:34:33.872Z,101800.56
2023-05-05T14:37:01.288Z,101797.81
2023-05-05T14:39:27.815Z,101807.94
2023-05-05T14:41:54.280Z,101805.69
2023-05-05T14:44:20.842Z,101794.06
2023-05-05T14:46:51.116Z,101785.16
2023-05-05T14:49:20.053Z,101779.88
2023-05-05T14:51:46.499Z,101772.53
2023-05-05T14:54:26.975Z,101759.28
2023-05-05T14:56:58.326Z,101763.34
2023-05-05T14:59:24.918Z,101758.00
2023-05-05T15:01:54.066Z,101767.72
2023-05-05T15:04:20.652Z,101777.53
2023-05-05T15:06:49.325Z,101783.53
2023-05-05T15:09:18.069Z,101802.06
2023-05-05T15:11:45.479Z,101796.03
2023-05-05T15:14:14.245Z,101786.25
2023-05-05T15:16:43.029Z,101792.91
2023-05-05T15:19:11.898Z,101801.00
2023-05-05T15:21:38.371Z,101801.31
2023-05-05T15:24:07.501Z,101795.28
2023-05-05T15:26:36.637Z,101792.59
2023-05-05T15:29:03.176Z,101790.31
2023-05-05T15:31:29.719Z,101783.94
2023-05-05T15:33:56.391Z,101772.16
2023-05-05T15:36:24.985Z,101772.59
2023-05-05T15:38:51.558Z,101775.03
2023-05-05T15:41:20.526Z,101779.75
2023-05-05T15:43:47.008Z,101770.47
2023-05-05T15:46:15.745Z,101769.13
2023-05-05T15:48:42.274Z,101764.53
2023-05-05T15:51:11.155Z,101767.47
2023-05-05T15:53:37.620Z,101766.63
2023-05-05T15:56:08.997Z,101770.34
2023-05-05T15:58:37.833Z,101767.88
2023-05-05T16:01:04.359Z,101763.84
2023-05-05T16:03:31.101Z,101760.41
2023-05-05T16:06:00.253Z,101754.22
2023-05-05T16:08:26.898Z,101753.44
2023-05-05T16:10:53.456Z,101758.22
2023-05-05T16:13:20.085Z,101755.03
2023-05-05T16:15:51.313Z,101758.59
2023-05-05T16:18:20.170Z,101760.81
2023-05-05T16:20:46.913Z,101756.53
2023-05-05T16:23:13.566Z,101758.28
2023-05-05T16:25:42.528Z,101755.53
2023-05-05T16:28:13.627Z,101750.22
2023-05-05T16:30:42.721Z,101746.38
2023-05-05T16:33:11.852Z,101751.59
2023-05-05T16:35:38.502Z,101748.19
2023-05-05T16:38:04.978Z,101747.19
2023-05-05T16:40:36.325Z,101739.84
2023-05-05T16:43:10.047Z,101736.06
2023-05-05T16:45:36.485Z,101738.66
2023-05-05T16:48:03.179Z,101735.47
2023-05-05T16:50:32.372Z,101737.06
2023-05-05T16:53:01.041Z,101745.38
2023-05-05T16:55:30.043Z,101742.56
2023-05-05T16:57:58.722Z,101738.56
2023-05-05T17:00:25.282Z,101731.97
2023-05-05T17:02:56.276Z,101741.72
2023-05-05T17:05:25.280Z,101747.66
2023-05-05T17:07:54.134Z,101752.75
2023-05-05T17:10:25.397Z,101756.97
2023-05-05T17:12:53.024Z,101752.03
2023-05-05T17:15:19.632Z,101746.41
2023-05-05T17:17:48.525Z,101743.81
2023-05-05T17:20:17.572Z,101744.03
2023-05-05T17:22:46.429Z,101750.16
2023-05-05T17:25:15.477Z,101750.34
2023-05-05T17:27:42.049Z,101746.75
2023-05-05T17:30:11.848Z,101749.13
2023-05-05T17:32:40.971Z,101755.50
2023-05-05T17:35:08.127Z,101758.22
2023-05-05T17:37:37.751Z,101754.66
2023-05-05T17:40:05.358Z,101755.81
2023-05-05T17:42:34.723Z,101756.44
2023-05-05T17:45:01.462Z,101752.09
2023-05-05T17:47:30.606Z,101749.09
2023-05-05T17:49:59.637Z,101752.25
2023-05-05T17:52:28.447Z,101754.22
2023-05-05T17:54:57.317Z,101759.78
2023-05-05T17:57:23.785Z,101764.09
2023-05-05T17:59:51.860Z,101762.50
2023-05-05T18:02:19.012Z,101776.44
2023-05-05T18:04:48.054Z,101766.84
2023-05-05T18:07:14.626Z,101765.84
2023-05-05T18:09:46.111Z,101767.63
2023-05-05T18:12:17.537Z,101770.38
2023-05-05T18:14:44.046Z,101772.72
2023-05-05T18:17:10.491Z,101770.97
2023-05-05T18:19:37.975Z,101773.56
2023-05-05T18:22:04.453Z,101771.94
2023-05-05T18:24:31.800Z,101775.50
2023-05-05T18:26:58.639Z,101765.97
2023-05-05T18:29:25.456Z,101768.84
2023-05-05T18:31:54.716Z,101766.06
2023-05-05T18:34:23.733Z,101768.78
2023-05-05T18:36:54.273Z,101776.28
2023-05-05T18:39:23.637Z,101772.22
2023-05-05T18:41:50.292Z,101774.72
2023-05-05T18:44:17.946Z,101782.22
2023-05-05T18:46:46.950Z,101779.75
2023-05-05T18:49:18.174Z,101781.66
2023-05-05T18:51:44.726Z,101785.16
2023-05-05T18:54:11.316Z,101781.59
2023-05-05T18:56:40.647Z,101785.34
2023-05-05T18:59:07.755Z,101777.25
2023-05-05T19:01:34.296Z,101781.25
2023-05-05T19:04:03.398Z,101782.31
2023-05-05T19:06:34.689Z,101781.16
2023-05-05T19:09:03.995Z,101774.75
2023-05-05T19:11:30.521Z,101788.00
2023-05-05T19:13:57.140Z,101783.34
2023-05-05T19:16:23.650Z,101791.16
2023-05-05T19:18:50.200Z,101792.72
2023-05-05T19:21:16.736Z,101788.97
2023-05-05T19:23:43.245Z,101797.06
2023-05-05T19:26:11.606Z,101801.84
2023-05-05T19:28:40.280Z,101794.63
2023-05-05T19:31:12.172Z,101803.59
2023-05-05T19:33:42.266Z,101807.91
2023-05-05T19:36:11.008Z,101807.81
2023-05-05T19:38:37.513Z,101810.72
2023-05-05T19:41:03.993Z,101813.31
2023-05-05T19:43:34.986Z,101816.28
2023-05-05T19:46:06.401Z,101812.28
2023-05-05T19:48:33.029Z,101813.25
2023-05-05T19:51:04.187Z,101820.16
2023-05-05T19:53:31.082Z,101815.66
2023-05-05T19:55:57.749Z,101812.66
2023-05-05T19:58:24.230Z,101819.22
2023-05-05T20:00:50.901Z,101812.97
2023-05-05T20:03:19.767Z,101813.47
2023-05-05T20:05:48.859Z,101819.13
2023-05-05T20:08:15.328Z,101821.69
2023-05-05T20:10:46.516Z,101820.09
2023-05-05T20:13:16.158Z,101818.00
2023-05-05T20:15:43.245Z,101822.91
2023-05-05T20:18:09.729Z,101815.50
2023-05-05T20:20:38.645Z,101818.44
2023-05-05T20:23:07.594Z,101822.78
2023-05-05T20:25:36.844Z,101823.91
2023-05-05T20:28:05.540Z,101818.91
2023-05-05T20:30:34.390Z,101825.50
2023-05-05T20:33:01.042Z,101823.75
2023-05-05T20:35:27.608Z,101825.97
2023-05-05T20:37:58.667Z,101826.78
2023-05-05T20:40:27.519Z,101828.91
2023-05-05T20:42:56.286Z,101837.25
2023-05-05T20:45:22.800Z,101836.00
2023-05-05T20:47:51.654Z,101830.06
2023-05-05T20:50:20.289Z,101831.66
2023-05-05T20:52:47.562Z,101832.00
2023-05-05T20:55:14.053Z,101828.78
2023-05-05T20:57:42.851Z,101823.16
2023-05-05T21:00:12.506Z,101823.16
2023-05-05T21:02:39.294Z,101818.66
2023-05-05T21:05:06.595Z,101820.28
2023-05-05T21:07:34.180Z,101820.28
2023-05-05T21:10:02.215Z,101818.81
2023-05-05T21:12:29.225Z,101819.47
2023-05-05T21:14:59.563Z,101824.91
2023-05-05T21:17:27.075Z,101822.53
2023-05-05T21:19:58.439Z,101820.13
2023-05-05T21:22:25.101Z,101814.00
2023-05-05T21:24:51.549Z,101821.72
2023-05-05T21:27:18.288Z,101817.69
2023-05-05T21:29:44.762Z,101825.56
2023-05-05T21:32:11.863Z,101827.16
2023-05-05T21:34:39.222Z,101823.97
2023-05-05T21:37:06.765Z,101819.78
2023-05-05T21:39:35.494Z,101820.09
2023-05-05T21:42:02.057Z,101819.78
2023-05-05T21:44:33.446Z,101818.34
2023-05-05T21:46:59.872Z,101818.66
2023-05-05T21:49:26.379Z,101813.19
2023-05-05T21:51:52.839Z,101819.47
2023-05-05T21:54:21.538Z,101819.94
2023-05-05T21:56:48.147Z,101808.53
2023-05-05T21:59:16.540Z,101806.94
2023-05-05T22:01:43.832Z,101809.81
2023-05-05T22:04:12.853Z,101806.41
2023-05-05T22:06:39.395Z,101808.84
2023-05-05T22:09:05.850Z,101804.81
2023-05-05T22:11:32.305Z,101810.28
2023-05-05T22:14:01.843Z,101807.50
2023-05-05T22:16:30.867Z,101809.16
2023-05-05T22:18:59.887Z,101809.13
2023-05-05T22:21:28.911Z,101806.22
2023-05-05T22:23:55.412Z,101809.13
2023-05-05T22:26:21.916Z,101809.25
2023-05-05T22:28:48.516Z,101815.53
2023-05-05T22:31:17.483Z,101811.97
2023-05-05T22:33:48.608Z,101816.03
2023-05-05T22:36:17.559Z,101804.59
2023-05-05T22:38:46.501Z,101814.88
2023-05-05T22:41:16.002Z,101814.88
2023-05-05T22:43:44.887Z,101812.94
2023-05-05T22:46:15.071Z,101809.75
2023-05-05T22:48:41.576Z,101811.34
2023-05-05T22:51:08.099Z,101815.06
2023-05-05T22:53:34.594Z,101815.72
2023-05-05T22:56:01.116Z,101814.91
2023-05-05T22:58:27.946Z,101810.09
2023-05-05T23:00:54.402Z,101810.09
2023-05-05T23:03:20.900Z,101801.13
2023-05-05T23:05:49.672Z,101802.38
2023-05-05T23:08:16.138Z,101801.13
2023-05-05T23:10:42.633Z,101804.34
2023-05-05T23:13:09.426Z,101802.25
2023-05-05T23:15:38.996Z,101796.94
2023-05-05T23:18:10.285Z,101805.94
2023-05-05T23:20:36.738Z,101807.72
2023-05-05T23:23:05.776Z,101806.75
2023-05-05T23:25:32.266Z,101805.78
2023-05-05T23:28:01.067Z,101808.66
2023-05-05T23:30:27.513Z,101808.03
2023-05-05T23:32:54.848Z,101803.06
2023-05-05T23:35:23.948Z,101795.31
2023-05-05T23:37:50.483Z,101803.19
2023-05-05T23:40:17.017Z,101795.97
2023-05-05T23:42:43.436Z,101793.19
2023-05-05T23:45:12.619Z,101792.69
2023-05-05T23:47:41.769Z,101793.66
2023-05-05T23:50:11.002Z,101789.78
2023-05-05T23:52:39.940Z,101789.13
2023-05-05T23:55:10.373Z,101791.72
2023-05-05T23:57:39.587Z,101791.25
